Time;durP1;ratioP1;P1;durP2;ratioP2;P2;SDS_P1;SDS_P2;PMS_P1;PMS_P2;Temp;Humidity;BMP_temperature;BMP_pressure;BME280_temperature;BME280_humidity;BME280_pressure;Samples;Min_cycle;Max_cycle;Signal;HPM_P1;HPM_P2
2021/05/18 12:57:57;;;;;;;3.28;1.52;;;;;;;22.06;39.07;100518.56;4738229;27;10001952;-58
2021/05/18 13:00:25;;;;;;;12.02;2.30;;;;;;;22.12;38.64;100519.78;5086574;28;20037;-59
2021/05/18 13:02:52;;;;;;;3.70;1.38;;;;;;;22.09;38.76;100522.78;5089989;28;20055;-66
2021/05/18 13:05:21;;;;;;;3.75;1.00;;;;;;;22.03;40.30;100528.75;5069261;28;20059;-66
2021/05/18 13:08:09;;;;;;;3.25;1.05;;;;;;;22.03;39.58;100539.44;5089064;28;20032;-66
2021/05/18 13:10:43;;;;;;;2.95;1.30;;;;;;;22.00;39.80;100537.91;5088055;28;20050;-66
2021/05/18 13:13:09;;;;;;;3.53;1.50;;;;;;;21.99;39.74;100538.91;5088580;28;20028;-65
2021/05/18 13:15:35;;;;;;;2.53;0.90;;;;;;;21.97;39.37;100544.38;5102384;28;20157;-66
2021/05/18 13:18:03;;;;;;;2.20;1.00;;;;;;;21.93;39.96;100548.38;5086862;28;20081;-66
2021/05/18 13:20:55;;;;;;;3.27;1.13;;;;;;;21.93;39.87;100542.16;5087203;28;20164;-66
2021/05/18 13:28:34;;;;;;;2.65;0.98;;;;;;;21.91;40.12;100536.94;5094118;28;20092;-66
2021/05/18 13:31:00;;;;;;;2.92;1.27;;;;;;;21.91;39.58;100530.75;5087633;28;20024;-66
2021/05/18 13:33:25;;;;;;;3.10;0.88;;;;;;;21.95;39.59;100526.81;5100778;28;20035;-65
2021/05/18 13:35:53;;;;;;;2.60;0.95;;;;;;;21.97;39.67;100527.50;5088966;28;20173;-66
2021/05/18 13:38:19;;;;;;;3.87;1.20;;;;;;;21.98;39.88;100527.38;5084113;28;20402;-66
2021/05/18 13:40:44;;;;;;;2.53;1.00;;;;;;;22.00;39.94;100528.03;5097338;28;20289;-66
2021/05/18 13:43:10;;;;;;;2.63;0.90;;;;;;;22.03;40.26;100526.06;5086548;28;20097;-66
2021/05/18 13:45:36;;;;;;;2.30;1.00;;;;;;;22.06;39.87;100526.59;5100727;28;20024;-66
2021/05/18 13:48:01;;;;;;;2.95;0.80;;;;;;;22.10;40.29;100513.75;5090737;28;20035;-66
2021/05/18 13:50:28;;;;;;;3.00;0.98;;;;;;;22.13;40.35;100519.66;5087054;28;20321;-66
2021/05/18 13:52:57;;;;;;;2.28;0.82;;;;;;;22.18;39.97;100512.03;5093279;28;20032;-65
2021/05/18 13:55:23;;;;;;;3.70;0.90;;;;;;;22.17;39.88;100514.88;5100532;28;20113;-64
2021/05/18 13:57:49;;;;;;;4.40;1.20;;;;;;;22.16;39.94;100521.22;5083896;28;20064;-65
2021/05/18 14:00:16;;;;;;;2.10;0.80;;;;;;;22.13;39.80;100524.16;5091765;28;20040;-66
2021/05/18 14:02:42;;;;;;;3.95;1.00;;;;;;;22.10;40.04;100516.44;5099508;28;20119;-66
2021/05/18 14:05:10;;;;;;;1.83;0.88;;;;;;;22.17;40.36;100514.88;5099623;28;20180;-64
2021/05/18 14:08:23;;;;;;;1.60;0.70;;;;;;;22.19;39.85;100511.06;5077046;28;20032;-65
2021/05/18 14:10:50;;;;;;;2.33;0.70;;;;;;;22.15;39.98;100509.69;5070034;28;20032;-67
2021/05/18 14:13:16;;;;;;;1.75;0.90;;;;;;;22.11;39.87;100515.44;5070066;28;20111;-66
2021/05/18 14:15:42;;;;;;;1.75;0.60;;;;;;;22.08;40.02;100513.91;5082727;28;20570;-66
2021/05/18 14:18:09;;;;;;;2.22;0.70;;;;;;;22.05;39.82;100508.00;5081106;28;20040;-65
2021/05/18 14:20:35;;;;;;;2.42;0.80;;;;;;;22.02;40.27;100509.16;5081149;28;20089;-67
2021/05/18 14:23:00;;;;;;;1.60;0.73;;;;;;;22.00;40.37;100511.97;5073373;28;20020;-67
2021/05/18 14:25:25;;;;;;;2.60;0.77;;;;;;;22.00;40.42;100509.31;5086316;28;20590;-67
2021/05/18 14:27:54;;;;;;;2.15;0.75;;;;;;;22.00;40.20;100505.78;5069233;28;20098;-67
2021/05/18 14:30:20;;;;;;;4.00;0.60;;;;;;;22.01;40.13;100502.13;5069698;28;20094;-67
2021/05/18 14:32:45;;;;;;;1.65;0.75;;;;;;;22.03;39.90;100501.97;5081781;28;20028;-67
2021/05/18 14:35:12;;;;;;;2.50;0.85;;;;;;;22.04;40.05;100504.50;5072202;28;20040;-67
2021/05/18 14:37:39;;;;;;;1.13;0.80;;;;;;;22.05;40.04;100510.69;5085266;28;20024;-64
2021/05/18 14:40:23;;;;;;;2.13;0.70;;;;;;;22.06;40.23;100512.38;5077151;28;20035;-67
2021/05/18 14:43:03;;;;;;;1.77;0.73;;;;;;;22.03;40.05;100510.00;5084453;28;20031;-68
2021/05/18 14:45:34;;;;;;;1.70;0.65;;;;;;;22.03;39.80;100505.50;5072535;28;20023;-67
2021/05/18 14:55:57;;;;;;;1.63;0.77;;;;;;;22.06;40.12;100513.22;5075573;28;20113;-66
2021/05/18 14:58:22;;;;;;;6.35;0.80;;;;;;;22.03;40.40;100518.88;5079947;28;20066;-66
2021/05/18 15:00:48;;;;;;;2.40;0.80;;;;;;;21.96;40.56;100515.97;5079820;28;20067;-67
2021/05/18 15:03:13;;;;;;;1.52;0.70;;;;;;;21.95;40.43;100511.59;5072134;28;20086;-63
2021/05/18 15:05:39;;;;;;;1.70;0.88;;;;;;;21.96;40.38;100510.59;5089015;28;20036;-62
2021/05/18 15:08:05;;;;;;;2.42;0.82;;;;;;;21.95;40.73;100511.59;5074012;28;20021;-63
2021/05/18 15:10:32;;;;;;;2.50;0.93;;;;;;;21.93;40.98;100510.91;5085560;28;20017;-62
2021/05/18 15:12:57;;;;;;;2.65;0.75;;;;;;;21.93;40.47;100508.22;5073557;28;20048;-62
2021/05/18 15:15:23;;;;;;;2.60;0.70;;;;;;;21.90;40.67;100508.53;5077135;28;20414;-62
2021/05/18 15:17:49;;;;;;;1.88;0.75;;;;;;;21.89;40.95;100517.56;5086195;28;20020;-64
2021/05/18 15:20:15;;;;;;;3.03;1.08;;;;;;;21.85;41.14;100515.34;5070152;28;20041;-63
2021/05/18 15:22:40;;;;;;;1.85;0.82;;;;;;;21.85;41.11;100518.00;5068752;28;20347;-62
2021/05/18 15:25:07;;;;;;;2.08;0.80;;;;;;;21.82;41.38;100516.47;5070688;28;20041;-62
2021/05/18 15:27:32;;;;;;;4.18;1.20;;;;;;;21.82;40.97;100520.97;5080071;28;20080;-63
2021/05/18 15:29:57;;;;;;;1.55;0.82;;;;;;;21.90;41.22;100524.56;5078772;28;20032;-66
2021/05/18 15:32:23;;;;;;;25.60;2.45;;;;;;;21.84;41.10;100527.00;5077413;28;20123;-66
2021/05/18 15:34:48;;;;;;;2.92;0.93;;;;;;;21.79;40.97;100535.47;5085137;28;20459;-66
2021/05/18 15:37:14;;;;;;;1.48;0.70;;;;;;;21.77;40.68;100532.09;5069145;28;20147;-67
2021/05/18 15:39:40;;;;;;;1.80;0.70;;;;;;;21.77;40.84;100537.44;5088079;28;20035;-66
2021/05/18 15:42:06;;;;;;;2.10;0.70;;;;;;;21.75;41.17;100532.28;5089316;28;20486;-67
2021/05/18 15:44:31;;;;;;;1.10;0.70;;;;;;;21.76;41.20;100538.47;5070885;28;20024;-67
2021/05/18 15:46:56;;;;;;;2.58;0.82;;;;;;;21.75;41.36;100534.09;5068815;28;20456;-67
2021/05/18 15:49:24;;;;;;;1.00;0.70;;;;;;;21.73;41.11;100530.72;5068460;28;20388;-66
2021/05/18 15:51:50;;;;;;;2.05;0.80;;;;;;;21.71;41.59;100532.72;5069226;28;20028;-67
2021/05/18 15:54:16;;;;;;;1.52;0.75;;;;;;;21.73;41.35;100534.22;5068521;28;20042;-67
2021/05/18 15:56:41;;;;;;;0.98;0.50;;;;;;;21.73;41.35;100538.75;5067545;28;20091;-67
2021/05/18 15:59:06;;;;;;;1.10;0.50;;;;;;;21.72;41.67;100542.41;5082568;28;20024;-67
2021/05/18 16:01:32;;;;;;;1.63;0.70;;;;;;;21.71;41.04;100546.94;5069154;28;20468;-67
2021/05/18 16:04:00;;;;;;;1.95;0.90;;;;;;;21.71;41.10;100557.63;5067652;28;20086;-68
2021/05/18 16:06:28;;;;;;;1.30;0.52;;;;;;;21.68;41.09;100557.94;5067841;28;20040;-68
2021/05/18 16:11:19;;;;;;;2.88;0.77;;;;;;;21.68;41.45;100573.97;5067686;28;20122;-67
2021/05/18 16:13:45;;;;;;;1.52;0.68;;;;;;;21.68;41.16;100590.03;5060418;28;20490;-67
2021/05/18 16:16:13;;;;;;;1.13;0.50;;;;;;;21.68;41.83;100576.66;5048020;28;20039;-67
2021/05/18 16:18:39;;;;;;;1.23;0.60;;;;;;;21.68;41.70;100581.16;5060106;28;20029;-66
2021/05/18 16:21:06;;;;;;;2.15;0.80;;;;;;;21.69;41.92;100580.16;5068576;28;20376;-67
2021/05/18 16:23:33;;;;;;;1.13;0.60;;;;;;;21.69;41.74;100581.00;5068070;28;20029;-67
2021/05/18 16:25:58;;;;;;;2.88;1.45;;;;;;;21.71;41.74;100575.53;5068134;28;20229;-67
2021/05/18 16:28:24;;;;;;;1.48;0.70;;;;;;;21.71;41.99;100571.00;5066501;28;20075;-67
2021/05/18 16:30:50;;;;;;;1.73;1.00;;;;;;;21.72;41.52;100567.34;5068386;28;20541;-67
2021/05/18 16:33:16;;;;;;;2.17;0.85;;;;;;;21.74;41.49;100561.81;5068858;28;20062;-67
2021/05/18 16:35:41;;;;;;;1.52;0.80;;;;;;;23.54;38.33;100571.59;5065013;28;20060;-67
2021/05/18 16:38:07;;;;;;;1.90;0.60;;;;;;;22.07;41.11;100564.91;5069905;28;20112;-67
2021/05/18 16:40:33;;;;;;;1.40;0.88;;;;;;;21.91;41.57;100565.53;5061342;28;20032;-68
2021/05/18 16:42:58;;;;;;;2.25;0.77;;;;;;;21.82;41.60;100566.47;5060109;28;20033;-68
2021/05/18 16:45:24;;;;;;;2.17;0.68;;;;;;;21.80;41.69;100568.44;5061899;28;20327;-68
2021/05/18 16:47:49;;;;;;;1.45;0.70;;;;;;;21.77;41.54;100562.38;5060813;28;20040;-68
2021/05/18 16:50:15;;;;;;;2.65;0.90;;;;;;;21.75;42.02;100561.69;5062760;28;20040;-68
2021/05/18 16:52:41;;;;;;;2.70;0.70;;;;;;;21.71;41.90;100560.31;5053828;28;20033;-68
2021/05/18 16:55:08;;;;;;;2.30;0.90;;;;;;;21.65;41.94;100555.53;5064775;28;20028;-68
2021/05/18 16:57:34;;;;;;;1.90;0.90;;;;;;;21.67;42.02;100568.75;5062445;28;20784;-69
2021/05/18 16:59:59;;;;;;;2.70;0.70;;;;;;;21.66;42.25;100575.09;5061114;28;20103;-68
2021/05/18 17:02:28;;;;;;;1.73;0.75;;;;;;;21.66;42.43;100567.06;5063888;28;20426;-68
2021/05/18 17:04:54;;;;;;;2.17;0.90;;;;;;;21.67;42.86;100571.44;5066317;28;20094;-68
2021/05/18 17:07:19;;;;;;;3.35;0.90;;;;;;;21.68;42.18;100570.47;5064102;28;20028;-69
2021/05/18 17:09:44;;;;;;;1.58;0.70;;;;;;;21.71;42.14;100573.69;5065171;28;20119;-67
2021/05/18 17:12:10;;;;;;;3.08;0.90;;;;;;;21.72;42.43;100566.50;5064745;28;20028;-67
2021/05/18 17:14:35;;;;;;;3.03;0.90;;;;;;;21.71;42.17;100571.00;5064091;28;20021;-68
2021/05/18 17:17:01;;;;;;;2.25;0.77;;;;;;;21.74;42.32;100573.41;5063080;28;20032;-69
2021/05/18 17:19:27;;;;;;;2.28;0.95;;;;;;;21.74;42.74;100575.19;5062416;28;20028;-68
2021/05/18 17:21:52;;;;;;;2.35;0.85;;;;;;;21.73;42.16;100569.00;5063034;28;20075;-68
2021/05/18 17:24:17;;;;;;;2.63;0.95;;;;;;;21.73;42.68;100569.00;5063317;28;20056;-68
2021/05/18 17:26:43;;;;;;;4.43;0.95;;;;;;;21.72;42.57;100571.84;5060601;28;20145;-67
2021/05/18 17:29:10;;;;;;;3.58;0.95;;;;;;;21.72;42.38;100570.00;5067241;28;20044;-68
2021/05/18 17:31:35;;;;;;;3.15;1.00;;;;;;;21.73;42.61;100582.38;5065270;28;20016;-68
2021/05/18 17:34:01;;;;;;;2.80;0.90;;;;;;;21.73;42.76;100577.03;5061857;28;20028;-68
2021/05/18 17:36:27;;;;;;;3.38;1.20;;;;;;;21.75;42.54;100575.06;5066568;28;20041;-68
2021/05/18 17:38:56;;;;;;;2.60;1.27;;;;;;;21.75;42.88;100576.91;5062259;28;20644;-69
2021/05/18 17:41:22;;;;;;;3.93;1.10;;;;;;;21.75;42.92;100582.25;5060102;28;20060;-68
2021/05/18 17:43:53;;;;;;;4.05;1.40;;;;;;;21.75;42.59;100583.09;5060130;28;20028;-69
2021/05/18 17:46:18;;;;;;;1.33;0.80;;;;;;;21.72;42.77;100583.38;5076710;28;20074;-68
2021/05/18 17:48:43;;;;;;;4.47;1.75;;;;;;;21.70;44.01;100595.22;5073291;28;20040;-67
2021/05/18 17:51:09;;;;;;;3.08;1.17;;;;;;;21.67;43.69;100593.66;5063054;28;20035;-69
2021/05/18 17:53:34;;;;;;;8.13;1.67;;;;;;;21.67;43.15;100600.84;5066208;28;20025;-69
2021/05/18 17:56:00;;;;;;;3.85;2.17;;;;;;;21.65;43.69;100594.81;5064306;28;20682;-67
2021/05/18 17:58:25;;;;;;;2.47;1.38;;;;;;;21.67;43.94;100598.19;5069188;28;20356;-68
2021/05/18 18:00:51;;;;;;;3.72;1.20;;;;;;;21.66;43.55;100602.69;5086852;28;20028;-67
2021/05/18 18:03:18;;;;;;;2.47;1.02;;;;;;;21.65;43.74;100600.16;5076313;28;20415;-70
2021/05/18 18:05:43;;;;;;;2.67;1.20;;;;;;;21.66;43.67;100608.03;5077509;28;20350;-68
2021/05/18 18:08:09;;;;;;;2.25;1.08;;;;;;;21.64;43.18;100607.34;5076442;28;20479;-68
2021/05/18 18:10:34;;;;;;;5.80;1.40;;;;;;;21.66;43.15;100613.38;5075942;28;20038;-69
2021/05/18 18:13:00;;;;;;;2.80;1.58;;;;;;;21.65;43.35;100610.88;5071461;28;20029;-68
2021/05/18 18:15:25;;;;;;;4.40;1.05;;;;;;;21.64;43.02;100612.72;5071702;28;20063;-69
2021/05/18 18:17:51;;;;;;;1.83;1.10;;;;;;;21.63;43.46;100613.66;5072889;28;20569;-68
2021/05/18 18:20:16;;;;;;;2.03;1.00;;;;;;;21.63;43.28;100619.03;5077605;28;20059;-67
2021/05/18 18:22:42;;;;;;;3.22;1.20;;;;;;;21.62;43.22;100612.00;5071478;28;20032;-68
2021/05/18 18:25:10;;;;;;;3.38;1.20;;;;;;;21.58;43.09;100605.25;5081113;28;20560;-68
2021/05/18 18:27:35;;;;;;;2.70;1.10;;;;;;;21.61;43.11;100618.34;5072207;28;20080;-68
2021/05/18 18:30:01;;;;;;;2.55;1.27;;;;;;;21.61;42.74;100615.66;5069963;28;20032;-68
2021/05/18 18:32:26;;;;;;;4.32;1.38;;;;;;;21.61;43.03;100617.50;5074805;28;20021;-68
2021/05/18 18:34:52;;;;;;;2.67;1.20;;;;;;;21.60;43.18;100621.16;5077739;28;20556;-69
2021/05/18 18:37:18;;;;;;;3.50;1.20;;;;;;;21.59;43.30;100619.47;5069680;28;20563;-68
2021/05/18 18:39:46;;;;;;;3.15;1.27;;;;;;;21.57;43.18;100614.25;5078426;28;20033;-68
2021/05/18 18:42:13;;;;;;;2.15;1.20;;;;;;;21.58;42.96;100623.16;5075782;28;20032;-68
2021/05/18 18:44:39;;;;;;;3.17;1.38;;;;;;;21.56;43.21;100615.25;5076280;28;20051;-68
2021/05/18 18:47:06;;;;;;;3.15;1.42;;;;;;;21.55;42.87;100616.25;5074950;28;20378;-68
2021/05/18 18:49:37;;;;;;;3.55;1.50;;;;;;;21.56;42.68;100614.41;5075907;28;20044;-68
2021/05/18 18:52:04;;;;;;;3.22;1.50;;;;;;;21.52;43.16;100614.69;5068332;28;20311;-67
2021/05/18 18:54:29;;;;;;;2.92;1.50;;;;;;;21.53;43.24;100618.22;5050016;28;20039;-67
2021/05/18 18:56:55;;;;;;;4.03;1.60;;;;;;;21.53;43.07;100624.41;5069122;28;20056;-68
2021/05/18 18:59:20;;;;;;;3.22;1.55;;;;;;;21.53;43.00;100626.22;5058430;28;20086;-69
2021/05/18 19:01:52;;;;;;;2.85;1.35;;;;;;;21.53;42.52;100626.22;5064810;28;20037;-68
2021/05/18 19:04:22;;;;;;;2.55;1.27;;;;;;;21.54;42.74;100635.97;5057045;28;20103;-68
2021/05/18 19:06:58;;;;;;;4.20;1.50;;;;;;;21.51;43.12;100634.41;5058288;28;20021;-68
2021/05/18 19:09:51;;;;;;;2.88;1.20;;;;;;;21.50;43.00;100639.88;5071339;28;20040;-69
2021/05/18 19:14:37;;;;;;;3.20;1.30;;;;;;;21.49;43.15;100643.56;5063174;28;20108;-68
2021/05/18 19:17:02;;;;;;;2.55;1.30;;;;;;;21.49;42.81;100638.22;5062873;28;20120;-69
2021/05/18 19:19:27;;;;;;;3.28;1.30;;;;;;;21.49;42.95;100635.53;5060291;28;20029;-69
2021/05/18 19:21:53;;;;;;;3.45;1.63;;;;;;;21.48;42.37;100640.03;5061944;28;20035;-68
2021/05/18 19:24:18;;;;;;;2.63;1.20;;;;;;;21.47;42.76;100637.50;5064052;28;20031;-70
2021/05/18 19:26:45;;;;;;;4.53;1.98;;;;;;;21.45;42.83;100644.84;5076580;28;20740;-69
2021/05/18 19:29:10;;;;;;;3.50;1.45;;;;;;;21.46;42.50;100643.84;5059611;28;20031;-71
2021/05/18 19:31:36;;;;;;;2.95;1.55;;;;;;;21.43;42.70;100644.97;5057453;28;20013;-70
2021/05/18 19:34:01;;;;;;;3.15;1.30;;;;;;;21.45;42.77;100651.03;5061916;28;20112;-69
2021/05/18 19:42:09;;;;;;;3.35;1.55;;;;;;;21.44;42.59;100651.19;5059129;28;20035;-69
2021/05/18 19:44:52;;;;;;;3.20;1.50;;;;;;;22.87;39.23;100655.19;5066457;28;20025;-70
2021/05/18 19:50:11;;;;;;;3.53;1.58;;;;;;;21.51;42.16;100665.66;5059041;28;20055;-69
2021/05/18 19:52:38;;;;;;;4.60;1.60;;;;;;;21.45;42.26;100664.41;5059803;28;20491;-69
2021/05/18 19:55:06;;;;;;;3.40;1.40;;;;;;;21.43;42.54;100674.38;5068603;28;20092;-69
2021/05/18 19:57:38;;;;;;;4.45;1.40;;;;;;;21.40;42.79;100664.00;5053991;28;20041;-70
2021/05/18 20:08:45;;;;;;;3.42;1.60;;;;;;;21.33;43.05;100670.00;5068635;28;20079;-72
2021/05/18 20:21:46;;;;;;;2.85;1.30;;;;;;;21.45;42.60;100684.94;5063226;28;20483;-73
2021/05/18 20:24:12;;;;;;;2.50;1.30;;;;;;;21.46;42.98;100687.47;5060850;28;20077;-71
2021/05/18 20:26:37;;;;;;;3.75;1.50;;;;;;;21.48;42.75;100692.69;5061560;28;20021;-73
2021/05/18 20:29:03;;;;;;;2.97;1.48;;;;;;;21.49;42.83;100699.72;5055988;28;20021;-72
2021/05/18 20:31:28;;;;;;;4.22;1.52;;;;;;;21.51;42.40;100695.06;5057301;28;20021;-70
2021/05/18 20:34:06;;;;;;;3.45;1.20;;;;;;;21.50;42.89;100698.72;5061552;28;20024;-72
2021/05/18 20:41:31;;;;;;;2.20;1.20;;;;;;;21.55;42.79;100698.31;5058867;28;20319;-71
2021/05/18 20:44:00;;;;;;;2.75;1.20;;;;;;;21.56;42.53;100694.63;5068325;28;20463;-71
2021/05/18 20:46:26;;;;;;;2.72;1.38;;;;;;;21.59;42.40;100708.56;5057585;28;20108;-71
2021/05/18 20:48:51;;;;;;;3.60;1.40;;;;;;;21.58;42.57;100714.06;5067045;28;20029;-72
2021/05/18 20:51:16;;;;;;;4.38;1.50;;;;;;;21.60;42.24;100709.41;5056241;28;20025;-72
2021/05/18 20:53:42;;;;;;;3.55;1.38;;;;;;;21.59;42.81;100707.72;5067568;28;20356;-71
2021/05/18 20:56:08;;;;;;;6.50;2.05;;;;;;;21.61;42.51;100713.78;5066353;28;20047;-71
2021/05/18 20:58:33;;;;;;;4.57;1.50;;;;;;;21.63;42.49;100714.47;5068049;28;20043;-71
2021/05/18 21:00:59;;;;;;;2.20;1.15;;;;;;;21.63;42.57;100714.47;5078707;28;20020;-72
2021/05/18 21:03:24;;;;;;;5.38;1.50;;;;;;;21.63;42.23;100704.63;5079605;28;20450;-72
2021/05/18 21:05:53;;;;;;;4.13;1.70;;;;;;;21.64;42.60;100709.00;5075665;28;20036;-71
2021/05/18 21:08:36;;;;;;;3.10;1.27;;;;;;;21.64;41.90;100703.66;5070742;28;20397;-71
2021/05/18 21:16:16;;;;;;;2.05;1.10;;;;;;;21.67;42.35;100707.84;5064756;28;20037;-71
2021/05/18 21:18:41;;;;;;;2.95;1.25;;;;;;;21.67;42.26;100713.19;5070888;28;20058;-71
2021/05/18 21:21:09;;;;;;;2.92;1.40;;;;;;;21.68;42.44;100707.72;5062244;28;20025;-72
2021/05/18 21:23:34;;;;;;;2.33;1.13;;;;;;;21.69;43.11;100714.75;5072489;28;20051;-71
2021/05/18 21:25:59;;;;;;;2.63;1.17;;;;;;;21.72;42.99;100718.97;5073727;28;20028;-71
2021/05/18 21:28:26;;;;;;;2.90;1.30;;;;;;;21.72;44.33;100727.84;5076420;28;20025;-72
2021/05/18 21:30:52;;;;;;;2.95;1.60;;;;;;;21.72;43.07;100718.97;5071736;28;20024;-71
2021/05/18 21:33:18;;;;;;;2.92;1.60;;;;;;;21.70;42.63;100712.91;5076227;28;20024;-70
2021/05/18 21:35:43;;;;;;;3.28;1.27;;;;;;;21.73;42.90;100713.47;5069525;28;20029;-69
2021/05/18 21:38:09;;;;;;;6.60;1.33;;;;;;;21.71;42.37;100725.31;5068634;28;20109;-71
2021/05/18 21:40:43;;;;;;;1.85;1.13;;;;;;;21.71;42.51;100718.13;5078553;28;20047;-71
2021/05/18 21:43:09;;;;;;;2.25;1.20;;;;;;;21.70;42.80;100726.28;5073378;28;20048;-71
2021/05/18 21:45:34;;;;;;;1.75;1.10;;;;;;;21.72;42.84;100727.84;5073738;28;20025;-71
2021/05/18 21:48:00;;;;;;;2.70;1.27;;;;;;;21.72;42.27;100727.00;5084267;28;20032;-71
2021/05/18 21:50:28;;;;;;;2.22;1.13;;;;;;;21.66;42.35;100716.88;5070378;28;20028;-70
2021/05/18 21:52:53;;;;;;;3.28;1.60;;;;;;;21.71;42.57;100734.19;5079699;28;20036;-71
2021/05/18 21:55:19;;;;;;;5.25;1.52;;;;;;;21.71;42.86;100720.81;5075147;28;20402;-71
2021/05/18 21:57:44;;;;;;;2.22;1.25;;;;;;;21.73;43.26;100734.88;5082251;28;20105;-71
2021/05/18 22:00:14;;;;;;;2.60;1.17;;;;;;;21.74;44.38;100735.69;5076816;28;20475;-71
2021/05/18 22:02:41;;;;;;;2.92;1.20;;;;;;;21.73;44.47;100731.34;5083526;28;20038;-70
2021/05/18 22:05:07;;;;;;;4.78;1.55;;;;;;;21.71;43.40;100734.19;5082598;28;20052;-71
2021/05/18 22:07:33;;;;;;;3.83;1.25;;;;;;;21.66;44.29;100725.72;5067491;28;20031;-71
2021/05/18 22:10:11;;;;;;;4.10;1.30;;;;;;;21.67;43.82;100732.75;5072314;28;20037;-71
2021/05/18 22:26:07;;;;;;;5.53;1.95;;;;;;;21.54;43.76;100732.22;5077380;28;20024;-71
2021/05/18 22:28:35;;;;;;;4.63;1.30;;;;;;;21.50;43.66;100725.47;5073542;28;20031;-72
2021/05/18 22:31:00;;;;;;;2.67;1.40;;;;;;;21.51;42.95;100730.69;5074148;28;20017;-71
2021/05/18 22:33:26;;;;;;;6.43;1.50;;;;;;;21.48;42.83;100727.44;5073550;28;20428;-70
2021/05/18 22:35:51;;;;;;;2.88;1.15;;;;;;;21.47;42.52;100734.63;5061786;28;20029;-71
2021/05/18 22:38:19;;;;;;;2.63;1.30;;;;;;;21.45;42.57;100731.25;4380729;28;10001026;-71
2021/05/18 22:40:45;;;;;;;3.00;1.23;;;;;;;21.43;42.32;100733.19;5075617;28;20407;-71
2021/05/18 22:43:10;;;;;;;2.22;1.20;;;;;;;21.40;42.86;100735.31;5084409;28;20040;-71
2021/05/18 22:45:35;;;;;;;2.88;1.17;;;;;;;21.37;43.03;100724.91;5087202;28;20103;-72
2021/05/18 22:48:01;;;;;;;3.10;1.40;;;;;;;21.36;42.65;100734.75;5065572;28;22044;-71
2021/05/18 22:50:26;;;;;;;2.75;1.38;;;;;;;21.36;42.50;100737.44;5087292;28;20028;-71
2021/05/18 22:52:52;;;;;;;2.92;1.15;;;;;;;21.34;42.80;100730.53;5098159;28;20115;-70
2021/05/18 22:55:18;;;;;;;2.85;1.50;;;;;;;21.34;42.64;100736.75;5092213;28;20167;-71
2021/05/18 22:57:52;;;;;;;3.33;1.40;;;;;;;21.32;42.73;100733.31;5096005;28;20142;-71
2021/05/18 23:00:20;;;;;;;3.65;1.13;;;;;;;21.27;42.70;100733.75;5083607;28;20106;-71
2021/05/18 23:02:45;;;;;;;2.13;1.13;;;;;;;21.28;42.73;100735.44;5088768;28;20117;-71
2021/05/18 23:05:12;;;;;;;3.70;1.52;;;;;;;21.26;42.34;100734.75;5098463;27;20078;-70
2021/05/18 23:07:38;;;;;;;2.47;1.10;;;;;;;21.26;42.67;100739.22;5081967;28;20025;-71
2021/05/18 23:10:04;;;;;;;2.47;1.35;;;;;;;21.25;43.02;100751.75;5061756;28;20029;-71
2021/05/18 23:12:29;;;;;;;2.88;1.17;;;;;;;21.21;42.90;100750.34;5059164;28;20036;-71
2021/05/18 23:14:54;;;;;;;2.28;1.25;;;;;;;;;;5069113;28;20021;-71
2021/05/18 23:17:20;;;;;;;2.10;1.23;;;;;;;21.18;42.53;100753.28;5071878;28;20086;-70
2021/05/18 23:19:45;;;;;;;5.18;1.65;;;;;;;21.17;42.74;100756.94;5071727;28;20478;-71
2021/05/18 23:22:11;;;;;;;2.53;1.30;;;;;;;21.16;42.38;100757.06;5072117;28;20031;-71
2021/05/18 23:24:36;;;;;;;2.30;1.30;;;;;;;21.14;42.80;100751.88;5068452;28;20552;-71
2021/05/18 23:27:02;;;;;;;2.13;1.13;;;;;;;21.13;42.96;100752.00;5069319;28;20029;-71
2021/05/18 23:29:27;;;;;;;2.88;1.33;;;;;;;21.11;42.52;100749.47;5070583;28;20016;-70
2021/05/18 23:31:53;;;;;;;2.45;1.25;;;;;;;21.12;42.80;100756.50;5054104;28;20035;-71
2021/05/18 23:34:18;;;;;;;3.13;1.35;;;;;;;21.07;42.42;100750.75;5061282;28;20189;-71
2021/05/18 23:36:43;;;;;;;3.38;1.33;;;;;;;21.09;42.54;100759.47;5066099;28;20033;-70
2021/05/18 23:39:09;;;;;;;1.85;1.15;;;;;;;21.07;42.36;100750.75;5058090;28;20047;-71
2021/05/18 23:41:34;;;;;;;2.63;1.20;;;;;;;21.04;42.99;100749.19;5067121;28;20116;-71
2021/05/18 23:44:00;;;;;;;2.28;1.23;;;;;;;21.02;42.77;100745.81;5068495;28;20029;-71
2021/05/18 23:46:25;;;;;;;3.88;1.17;;;;;;;21.02;42.44;100747.63;5074184;28;20020;-70
2021/05/18 23:49:05;;;;;;;2.80;1.40;;;;;;;21.00;42.64;100747.78;5076542;28;20051;-71
2021/05/18 23:51:41;;;;;;;2.38;1.20;;;;;;;21.01;42.46;100753.97;5074605;28;20020;-71
2021/05/18 23:54:11;;;;;;;2.83;1.40;;;;;;;21.00;42.50;100747.78;5069060;28;20027;-71
2021/05/18 23:56:37;;;;;;;2.50;1.30;;;;;;;20.99;42.97;100747.91;5069122;28;20039;-71
2021/05/18 23:59:03;;;;;;;3.05;1.27;;;;;;;20.94;42.43;100747.50;5070638;28;20111;-70
